createdAt,value
2022-09-05T00:03:03.682Z,3.30
2022-09-05T00:06:02.557Z,3.53
2022-09-05T00:08:36.951Z,2.92
2022-09-05T00:11:41.368Z,3.83
2022-09-05T00:15:14.911Z,3.40
2022-09-05T00:21:48.206Z,3.03
2022-09-05T00:24:23.323Z,3.58
2022-09-05T00:24:33.985Z,3.60
2022-09-05T00:27:01.784Z,3.60
2022-09-05T00:31:06.574Z,3.45
2022-09-05T00:32:44.457Z,3.50
2022-09-05T00:35:26.512Z,3.40
2022-09-05T00:37:53.892Z,3.58
2022-09-05T00:40:31.258Z,3.33
2022-09-05T00:43:23.978Z,3.20
2022-09-05T00:45:56.489Z,2.83
2022-09-05T00:48:35.115Z,3.10
2022-09-05T00:51:14.775Z,3.40
2022-09-05T00:54:02.485Z,3.70
2022-09-05T00:56:54.711Z,3.10
2022-09-05T00:59:24.583Z,3.60
2022-09-05T01:01:56.707Z,3.38
2022-09-05T01:04:29.478Z,3.25
2022-09-05T01:07:10.725Z,3.42
2022-09-05T01:10:03.698Z,3.35
2022-09-05T01:12:55.336Z,3.78
2022-09-05T01:15:55.072Z,3.28
2022-09-05T01:18:43.740Z,3.50
2022-09-05T01:21:18.937Z,3.65
2022-09-05T01:23:57.748Z,3.38
2022-09-05T01:26:46.116Z,3.35
2022-09-05T01:29:27.500Z,3.30
2022-09-05T01:32:08.715Z,3.50
2022-09-05T01:35:01.763Z,3.75
2022-09-05T01:37:40.607Z,3.70
2022-09-05T01:40:28.669Z,3.97
2022-09-05T01:43:14.178Z,3.55
2022-09-05T01:45:55.796Z,3.97
2022-09-05T01:48:48.022Z,3.53
2022-09-05T01:51:32.333Z,3.63
2022-09-05T01:54:25.492Z,3.72
2022-09-05T01:57:20.930Z,3.53
2022-09-05T02:00:14.995Z,3.63
2022-09-05T02:02:53.729Z,3.38
2022-09-05T02:05:48.675Z,4.20
2022-09-05T02:08:16.280Z,3.33
2022-09-05T02:10:55.059Z,3.97
2022-09-05T02:13:33.813Z,3.63
2022-09-05T02:16:16.825Z,3.55
2022-09-05T02:19:06.416Z,3.72
2022-09-05T02:21:56.309Z,3.72
2022-09-05T02:24:33.141Z,4.20
2022-09-05T02:27:45.838Z,3.80
2022-09-05T02:30:08.722Z,3.80
2022-09-05T02:32:54.776Z,4.10
2022-09-05T02:36:06.313Z,3.70
2022-09-05T02:44:24.199Z,4.07
2022-09-05T02:45:20.775Z,4.00
2022-09-05T02:45:24.207Z,3.83
2022-09-05T02:48:20.000Z,4.18
2022-09-05T02:57:28.062Z,3.85
2022-09-05T02:57:38.336Z,4.07
2022-09-05T02:57:44.455Z,3.90
2022-09-05T02:59:50.686Z,4.00
2022-09-05T03:02:28.411Z,3.63
2022-09-05T03:05:04.493Z,3.85
2022-09-05T03:08:16.174Z,3.90
2022-09-05T03:11:20.567Z,3.90
2022-09-05T03:14:02.542Z,4.40
2022-09-05T03:16:48.010Z,4.03
2022-09-05T03:19:46.541Z,3.88
2022-09-05T03:22:44.429Z,4.00
2022-09-05T03:25:39.274Z,4.50
2022-09-05T03:28:27.767Z,4.50
2022-09-05T03:31:06.663Z,4.15
2022-09-05T03:34:06.674Z,4.55
2022-09-05T03:36:47.167Z,4.43
2022-09-05T03:39:44.920Z,4.07
2022-09-05T03:42:25.928Z,4.32
2022-09-05T03:45:07.452Z,4.22
2022-09-05T03:48:27.817Z,5.00
2022-09-05T03:57:08.630Z,4.40
2022-09-05T03:57:11.362Z,3.95
2022-09-05T03:57:24.063Z,4.50
2022-09-05T03:59:57.429Z,4.25
2022-09-05T04:05:28.399Z,4.20
2022-09-05T04:08:28.023Z,3.70
2022-09-05T04:08:43.352Z,4.60
2022-09-05T04:11:14.345Z,4.28
2022-09-05T04:13:53.837Z,4.72
2022-09-05T04:16:26.756Z,4.10
2022-09-05T04:19:18.260Z,4.38
2022-09-05T04:22:22.099Z,4.60
2022-09-05T04:24:55.518Z,4.22
2022-09-05T04:27:31.832Z,4.00
2022-09-05T04:30:00.862Z,4.50
2022-09-05T04:32:34.338Z,4.53
2022-09-05T04:35:35.611Z,4.43
2022-09-05T04:38:11.813Z,4.20
2022-09-05T04:40:41.682Z,4.38
2022-09-05T04:43:36.003Z,4.78
2022-09-05T04:46:18.877Z,4.18
2022-09-05T04:48:55.099Z,4.70
2022-09-05T04:51:44.482Z,4.60
2022-09-05T04:54:14.336Z,4.28
2022-09-05T04:56:44.295Z,3.78
2022-09-05T05:01:03.069Z,4.38
2022-09-05T05:06:18.911Z,4.20
2022-09-05T05:06:23.626Z,4.57
2022-09-05T05:08:43.632Z,4.10
2022-09-05T05:17:07.567Z,4.10
2022-09-05T05:17:55.976Z,4.03
2022-09-05T05:18:13.922Z,3.72
2022-09-05T05:20:41.905Z,4.35
2022-09-05T05:23:16.538Z,3.58
2022-09-05T05:25:48.136Z,3.80
2022-09-05T05:28:25.026Z,3.90
2022-09-05T05:31:01.618Z,3.40
2022-09-05T05:33:32.753Z,3.90
2022-09-05T05:36:01.616Z,4.07
2022-09-05T05:38:35.617Z,3.50
2022-09-05T05:41:12.497Z,3.72
2022-09-05T05:43:46.086Z,3.80
2022-09-05T05:46:16.185Z,3.75
2022-09-05T05:48:48.389Z,3.65
2022-09-05T05:52:01.417Z,3.63
2022-09-05T05:54:46.868Z,4.35
2022-09-05T05:57:26.714Z,3.58
2022-09-05T06:00:14.814Z,3.40
2022-09-05T06:03:09.849Z,4.65
2022-09-05T06:06:27.221Z,3.35
2022-09-05T06:14:49.297Z,3.28
2022-09-05T06:14:57.751Z,3.20
2022-09-05T06:15:45.329Z,3.03
2022-09-05T06:18:28.169Z,3.28
2022-09-05T06:22:11.512Z,3.22
2022-09-05T06:23:57.586Z,3.50
2022-09-05T06:26:52.206Z,3.45
2022-09-05T06:29:38.367Z,3.10
2022-09-05T06:32:34.105Z,3.53
2022-09-05T06:35:06.769Z,3.35
2022-09-05T06:38:01.621Z,3.50
2022-09-05T06:40:37.407Z,3.78
2022-09-05T06:43:26.038Z,3.15
2022-09-05T06:46:54.743Z,3.10
2022-09-05T06:49:39.323Z,3.45
2022-09-05T06:52:36.567Z,3.33
2022-09-05T06:55:26.560Z,3.10
2022-09-05T06:58:21.546Z,2.95
2022-09-05T07:00:55.624Z,3.33
2022-09-05T07:03:33.437Z,2.67
2022-09-05T07:06:46.666Z,3.20
2022-09-05T07:09:34.848Z,3.33
2022-09-05T07:12:43.142Z,3.08
2022-09-05T07:15:28.739Z,3.10
2022-09-05T07:18:34.389Z,3.10
2022-09-05T07:21:17.411Z,3.00
2022-09-05T07:24:09.505Z,4.20
2022-09-05T07:26:51.745Z,2.90
2022-09-05T07:29:37.808Z,3.13
2022-09-05T07:32:07.851Z,3.00
2022-09-05T07:34:35.545Z,2.88
2022-09-05T07:37:17.891Z,2.92
2022-09-05T07:39:50.291Z,2.78
2022-09-05T07:42:26.247Z,2.85
2022-09-05T07:44:59.750Z,2.60
2022-09-05T07:47:32.976Z,2.60
2022-09-05T07:51:51.274Z,3.10
2022-09-05T07:56:51.594Z,3.40
2022-09-05T07:56:59.809Z,2.80
2022-09-05T07:58:44.324Z,2.38
2022-09-05T08:01:12.859Z,2.88
2022-09-05T08:03:41.126Z,2.90
2022-09-05T08:06:18.420Z,3.17
2022-09-05T08:10:09.053Z,2.67
2022-09-05T08:12:15.282Z,2.80
2022-09-05T08:14:59.421Z,2.53
2022-09-05T08:17:30.072Z,3.28
2022-09-05T08:20:35.890Z,2.78
2022-09-05T08:23:06.377Z,3.08
2022-09-05T08:25:56.911Z,3.20
2022-09-05T08:28:25.862Z,2.92
2022-09-05T08:31:14.521Z,3.00
2022-09-05T08:33:43.543Z,3.25
2022-09-05T08:36:35.252Z,2.85
2022-09-05T08:39:03.789Z,3.33
2022-09-05T08:41:49.392Z,3.08
2022-09-05T08:46:36.845Z,2.95
2022-09-05T08:47:54.603Z,2.95
2022-09-05T08:50:39.748Z,2.70
2022-09-05T08:53:47.064Z,2.88
2022-09-05T08:56:58.540Z,2.63
2022-09-05T09:00:19.443Z,2.80
2022-09-05T09:03:29.018Z,3.08
2022-09-05T09:06:15.109Z,2.88
2022-09-05T09:08:54.580Z,2.85
2022-09-05T09:11:44.290Z,2.80
2022-09-05T09:14:33.043Z,2.78
2022-09-05T09:17:20.477Z,2.83
2022-09-05T09:20:06.226Z,2.97
2022-09-05T09:22:59.512Z,2.60
2022-09-05T09:25:36.874Z,2.78
2022-09-05T09:28:47.949Z,2.60
2022-09-05T09:31:22.771Z,2.97
2022-09-05T09:34:16.476Z,2.72
2022-09-05T09:36:52.272Z,3.00
2022-09-05T09:39:48.194Z,3.50
2022-09-05T09:42:33.712Z,2.80
2022-09-05T09:45:53.448Z,2.70
2022-09-05T09:48:35.190Z,2.80
2022-09-05T09:51:08.533Z,2.58
2022-09-05T09:53:46.972Z,2.88
2022-09-05T09:56:32.670Z,2.88
2022-09-05T09:59:14.517Z,2.50
2022-09-05T10:03:40.963Z,2.38
2022-09-05T10:10:40.340Z,2.72
2022-09-05T10:10:53.206Z,2.53
2022-09-05T10:12:14.056Z,2.67
2022-09-05T10:15:30.456Z,3.00
2022-09-05T10:18:14.158Z,2.72
2022-09-05T10:21:16.663Z,2.70
2022-09-05T10:24:08.277Z,2.67
2022-09-05T10:26:53.891Z,2.67
2022-09-05T10:29:52.814Z,2.70
2022-09-05T10:35:11.616Z,2.30
2022-09-05T10:35:22.346Z,2.30
2022-09-05T10:38:11.416Z,2.50
2022-09-05T10:41:14.545Z,2.40
2022-09-05T10:43:28.913Z,2.35
2022-09-05T10:46:01.258Z,2.15
2022-09-05T10:48:36.682Z,2.33
2022-09-05T10:51:26.900Z,2.17
2022-09-05T10:54:24.351Z,2.13
2022-09-05T10:57:07.735Z,2.03
2022-09-05T11:01:49.926Z,2.47
2022-09-05T11:03:00.696Z,2.30
2022-09-05T11:05:29.310Z,2.17
2022-09-05T11:08:03.207Z,2.42
2022-09-05T11:11:08.671Z,2.10
2022-09-05T11:13:46.123Z,2.38
2022-09-05T11:16:20.892Z,2.25
2022-09-05T11:19:04.181Z,2.72
2022-09-05T11:21:39.357Z,2.30
2022-09-05T11:24:27.130Z,2.33
2022-09-05T11:27:25.121Z,2.28
2022-09-05T11:30:28.404Z,2.20
2022-09-05T11:39:46.768Z,2.15
2022-09-05T11:39:53.604Z,2.15
2022-09-05T11:40:02.338Z,2.45
2022-09-05T11:42:16.878Z,2.00
2022-09-05T11:44:53.945Z,2.50
2022-09-05T11:47:43.641Z,2.30
2022-09-05T11:50:31.664Z,2.38
2022-09-05T11:53:20.118Z,2.40
2022-09-05T11:56:17.754Z,2.40
2022-09-05T11:59:06.321Z,3.25
2022-09-05T12:02:24.012Z,2.78
2022-09-05T12:05:48.857Z,2.80
2022-09-05T12:08:26.284Z,2.85
2022-09-05T12:11:34.569Z,2.78
2022-09-05T12:14:17.097Z,2.35
2022-09-05T12:16:55.600Z,2.88
2022-09-05T12:19:47.412Z,2.65
2022-09-05T12:22:33.834Z,2.67
2022-09-05T12:26:30.732Z,2.50
2022-09-05T12:28:51.061Z,2.55
2022-09-05T12:32:50.322Z,2.45
2022-09-05T12:36:07.971Z,2.60
2022-09-05T12:40:51.955Z,2.65
2022-09-05T12:41:33.575Z,2.33
2022-09-05T12:44:04.654Z,2.50
2022-09-05T12:45:47.758Z,3.20
2022-09-05T12:48:39.360Z,2.78
2022-09-05T12:51:18.574Z,2.42
2022-09-05T12:54:32.567Z,2.80
2022-09-05T12:57:51.693Z,2.85
2022-09-05T13:03:04.084Z,2.78
2022-09-05T13:03:12.396Z,2.42
2022-09-05T13:06:05.247Z,2.42
2022-09-05T13:08:59.649Z,3.33
2022-09-05T13:14:47.560Z,2.42
2022-09-05T13:15:07.884Z,2.70
2022-09-05T13:17:14.161Z,2.75
2022-09-05T13:19:45.877Z,2.42
2022-09-05T13:22:14.870Z,2.72
2022-09-05T13:24:48.094Z,2.50
2022-09-05T13:27:17.538Z,2.70
2022-09-05T13:33:36.395Z,2.60
2022-09-05T13:37:58.205Z,2.65
2022-09-05T13:38:02.655Z,2.50
2022-09-05T13:39:05.436Z,2.45
2022-09-05T13:41:36.172Z,2.65
2022-09-05T13:44:25.778Z,2.70
2022-09-05T13:46:59.273Z,2.97
2022-09-05T13:49:37.314Z,2.85
2022-09-05T13:52:13.640Z,2.97
2022-09-05T13:54:50.271Z,3.00
2022-09-05T13:57:39.135Z,3.00
2022-09-05T14:00:27.601Z,3.05
2022-09-05T14:03:37.763Z,2.90
2022-09-05T14:06:49.195Z,3.35
2022-09-05T14:09:39.643Z,3.30
2022-09-05T14:12:34.377Z,3.20
2022-09-05T14:15:16.457Z,5.10
2022-09-05T14:17:57.929Z,3.22
2022-09-05T14:20:49.527Z,3.33
2022-09-05T14:23:17.894Z,3.20
2022-09-05T14:25:52.411Z,2.97
2022-09-05T14:28:33.915Z,3.20
2022-09-05T14:37:37.322Z,2.97
2022-09-05T14:38:01.496Z,3.50
2022-09-05T14:38:05.642Z,3.28
2022-09-05T14:41:04.814Z,2.92
2022-09-05T14:43:57.144Z,3.47
2022-09-05T14:46:38.504Z,3.00
2022-09-05T14:49:37.709Z,3.17
2022-09-05T14:52:17.518Z,3.15
2022-09-05T15:02:42.187Z,3.28
2022-09-05T15:02:45.585Z,3.47
2022-09-05T15:03:12.803Z,3.40
2022-09-05T15:05:50.365Z,3.10
2022-09-05T15:11:15.231Z,3.08
2022-09-05T15:12:19.929Z,3.38
2022-09-05T15:14:05.733Z,3.45
2022-09-05T15:16:38.678Z,3.30
2022-09-05T15:19:09.548Z,3.83
2022-09-05T15:21:41.659Z,3.17
2022-09-05T15:24:21.311Z,3.30
2022-09-05T15:26:59.499Z,3.78
2022-09-05T15:29:34.506Z,3.72
2022-09-05T15:32:21.862Z,3.00
2022-09-05T15:34:52.974Z,3.40
2022-09-05T15:37:28.821Z,3.20
2022-09-05T15:40:23.694Z,3.90
2022-09-05T15:42:57.238Z,3.63
2022-09-05T15:45:35.565Z,3.22
2022-09-05T15:48:06.660Z,3.35
2022-09-05T15:50:46.975Z,3.53
2022-09-05T15:53:25.284Z,3.50
2022-09-05T15:55:56.403Z,3.70
2022-09-05T15:58:27.455Z,3.40
2022-09-05T16:01:12.907Z,3.60
2022-09-05T16:06:53.834Z,3.58
2022-09-05T16:10:38.655Z,3.80
2022-09-05T16:10:45.940Z,3.72
2022-09-05T16:12:36.028Z,4.45
2022-09-05T16:16:51.400Z,3.28
2022-09-05T16:23:13.779Z,3.58
2022-09-05T16:23:29.885Z,3.67
2022-09-05T16:23:49.280Z,3.85
2022-09-05T16:26:26.187Z,3.55
2022-09-05T16:29:05.561Z,3.95
2022-09-05T16:31:42.170Z,4.05
2022-09-05T16:34:32.099Z,3.63
2022-09-05T16:37:08.167Z,4.03
2022-09-05T16:39:38.172Z,3.75
2022-09-05T16:42:16.205Z,3.50
2022-09-05T16:44:46.034Z,4.00
2022-09-05T16:47:22.151Z,3.95
2022-09-05T16:49:58.794Z,3.70
2022-09-05T16:52:53.526Z,3.78
2022-09-05T16:55:55.327Z,3.75
2022-09-05T16:58:31.701Z,3.88
2022-09-05T17:01:09.636Z,3.78
2022-09-05T17:03:36.417Z,3.17
2022-09-05T17:06:26.194Z,4.10
2022-09-05T17:09:12.406Z,3.78
2022-09-05T17:12:00.097Z,3.30
2022-09-05T17:14:34.485Z,2.80
2022-09-05T17:17:36.502Z,3.50
2022-09-05T17:20:09.806Z,3.40
2022-09-05T17:27:09.129Z,3.03
2022-09-05T17:29:24.243Z,3.05
2022-09-05T17:29:32.174Z,2.85
2022-09-05T17:31:54.866Z,3.25
2022-09-05T17:34:49.741Z,3.85
2022-09-05T17:37:25.482Z,3.17
2022-09-05T17:40:27.080Z,3.10
2022-09-05T17:43:18.658Z,2.97
2022-09-05T17:46:12.934Z,3.42
2022-09-05T17:49:10.171Z,3.30
2022-09-05T17:51:35.829Z,3.33
2022-09-05T17:54:08.192Z,3.40
2022-09-05T17:56:39.729Z,3.90
2022-09-05T17:59:13.435Z,3.38
2022-09-05T18:01:44.283Z,3.35
2022-09-05T18:04:16.419Z,3.47
2022-09-05T18:06:58.866Z,3.67
2022-09-05T18:09:36.857Z,2.90
2022-09-05T18:13:11.963Z,3.08
2022-09-05T18:15:38.803Z,3.20
2022-09-05T18:18:10.799Z,2.95
2022-09-05T18:21:14.626Z,3.35
2022-09-05T18:23:54.320Z,3.40
2022-09-05T18:26:26.371Z,3.20
2022-09-05T18:29:05.915Z,3.28
2022-09-05T18:31:41.631Z,3.58
2022-09-05T18:34:24.433Z,3.80
2022-09-05T18:36:58.575Z,3.63
2022-09-05T18:39:29.361Z,3.50
2022-09-05T18:42:26.497Z,3.75
2022-09-05T18:44:54.476Z,3.33
2022-09-05T18:47:52.821Z,3.58
2022-09-05T18:50:28.766Z,3.55
2022-09-05T18:53:08.836Z,3.65
2022-09-05T18:56:12.705Z,3.50
2022-09-05T18:58:34.145Z,3.58
2022-09-05T19:01:35.999Z,3.20
2022-09-05T19:04:07.840Z,3.70
2022-09-05T19:06:45.321Z,3.33
2022-09-05T19:09:20.389Z,3.55
2022-09-05T19:11:57.029Z,3.85
2022-09-05T19:14:41.961Z,3.75
2022-09-05T19:17:18.333Z,3.60
2022-09-05T19:20:05.113Z,3.60
2022-09-05T19:23:11.300Z,3.83
2022-09-05T19:25:44.391Z,3.28
2022-09-05T19:36:48.593Z,3.75
2022-09-05T19:37:12.703Z,3.42
2022-09-05T19:37:12.859Z,2.88
2022-09-05T19:47:26.850Z,3.38
2022-09-05T19:47:35.380Z,3.45
2022-09-05T19:47:41.359Z,3.38
2022-09-05T19:48:34.635Z,3.25
2022-09-05T19:51:17.879Z,3.30
2022-09-05T19:54:05.008Z,3.30
2022-09-05T19:56:42.689Z,3.50
2022-09-05T19:59:39.716Z,2.90
2022-09-05T20:02:11.944Z,3.40
2022-09-05T20:04:50.781Z,3.40
2022-09-05T20:07:28.840Z,3.63
2022-09-05T20:09:57.168Z,3.20
2022-09-05T20:12:30.501Z,3.45
2022-09-05T20:14:58.680Z,3.40
2022-09-05T20:17:31.565Z,3.30
2022-09-05T20:20:28.737Z,3.08
2022-09-05T20:23:02.522Z,3.10
2022-09-05T20:25:43.574Z,3.38
2022-09-05T20:28:13.993Z,3.30
2022-09-05T20:30:44.050Z,3.58
2022-09-05T20:33:19.421Z,3.30
2022-09-05T20:39:39.596Z,3.08
2022-09-05T20:43:19.941Z,3.40
2022-09-05T20:43:24.586Z,3.13
2022-09-05T20:44:22.718Z,3.30
2022-09-05T20:51:41.054Z,3.20
2022-09-05T20:54:18.230Z,3.30
2022-09-05T20:54:28.529Z,3.80
2022-09-05T20:55:41.215Z,3.25
2022-09-05T20:58:31.174Z,3.00
2022-09-05T21:01:22.792Z,2.70
2022-09-05T21:03:56.557Z,2.97
2022-09-05T21:06:33.931Z,2.90
2022-09-05T21:09:25.222Z,3.08
2022-09-05T21:11:54.964Z,3.47
2022-09-05T21:14:23.681Z,3.10
2022-09-05T21:16:59.908Z,3.17
2022-09-05T21:19:35.044Z,3.03
2022-09-05T21:22:03.591Z,2.63
2022-09-05T21:24:30.804Z,2.92
2022-09-05T21:27:23.121Z,3.05
2022-09-05T21:29:53.001Z,2.65
2022-09-05T21:32:26.098Z,2.80
2022-09-05T21:35:34.827Z,3.10
2022-09-05T21:37:53.231Z,2.97
2022-09-05T21:40:21.335Z,3.28
2022-09-05T21:47:37.783Z,2.90
2022-09-05T21:47:47.848Z,2.70
2022-09-05T21:48:24.493Z,3.00
2022-09-05T21:50:52.057Z,3.20
2022-09-05T21:55:07.986Z,3.20
2022-09-05T21:59:16.681Z,2.80
2022-09-05T21:59:33.208Z,2.63
2022-09-05T22:01:55.773Z,2.90
2022-09-05T22:04:22.558Z,2.78
2022-09-05T22:06:50.124Z,3.08
2022-09-05T22:09:18.334Z,3.20
2022-09-05T22:11:51.415Z,2.78
2022-09-05T22:14:23.723Z,2.92
2022-09-05T22:16:53.610Z,2.58
2022-09-05T22:19:37.200Z,2.80
2022-09-05T22:22:16.270Z,2.53
2022-09-05T22:24:53.495Z,2.72
2022-09-05T22:27:21.586Z,3.08
2022-09-05T22:29:50.771Z,2.10
2022-09-05T22:32:28.569Z,2.50
2022-09-05T22:35:16.000Z,3.03
2022-09-05T22:37:55.356Z,2.72
2022-09-05T22:40:27.393Z,2.70
2022-09-05T22:42:59.340Z,2.40
2022-09-05T22:45:26.784Z,2.90
2022-09-05T22:47:53.691Z,2.70
2022-09-05T22:50:20.921Z,2.67
2022-09-05T22:52:47.738Z,3.50
2022-09-05T22:55:14.470Z,2.78
2022-09-05T22:57:41.909Z,2.22
2022-09-05T23:00:09.683Z,2.58
2022-09-05T23:02:36.708Z,2.20
2022-09-05T23:05:05.265Z,2.38
2022-09-05T23:07:32.645Z,2.10
2022-09-05T23:09:59.415Z,2.47
2022-09-05T23:12:26.172Z,2.38
2022-09-05T23:14:52.932Z,1.98
2022-09-05T23:17:19.781Z,2.25
2022-09-05T23:19:46.480Z,2.00
2022-09-05T23:22:13.458Z,2.30
2022-09-05T23:24:40.139Z,2.10
2022-09-05T23:27:06.829Z,1.90
2022-09-05T23:29:33.646Z,1.95
2022-09-05T23:32:00.345Z,2.15
2022-09-05T23:34:27.034Z,1.92
2022-09-05T23:36:53.757Z,1.90
2022-09-05T23:39:20.466Z,1.67
2022-09-05T23:41:47.221Z,1.60
2022-09-05T23:44:13.987Z,1.85
2022-09-05T23:46:40.696Z,1.85
2022-09-05T23:49:07.533Z,1.63
2022-09-05T23:51:34.420Z,1.98
2022-09-05T23:54:01.095Z,2.05
2022-09-05T23:56:27.842Z,1.80
2022-09-05T23:58:54.770Z,1.90
